Time;durP1;ratioP1;P1;durP2;ratioP2;P2;SDS_P1;SDS_P2;PMS_P1;PMS_P2;Temp;Humidity;BMP_temperature;BMP_pressure;BME280_temperature;BME280_humidity;BME280_pressure;Samples;Min_cycle;Max_cycle;Signal;HPM_P1;HPM_P2
2021/08/04 00:02:29;;;;;;;3.72;0.85;;;14.00;99.90;;;;;;20564247;28;20050;-86
2021/08/04 00:12:30;;;;;;;2.45;1.10;;;14.00;99.90;;;;;;20542082;28;20051;-86
2021/08/04 00:22:32;;;;;;;2.88;1.30;;;13.80;99.90;;;;;;20576610;28;20066;-86
2021/08/04 00:32:37;;;;;;;2.63;0.90;;;13.80;99.90;;;;;;20576294;28;20041;-86
2021/08/04 00:42:38;;;;;;;2.35;1.00;;;13.70;99.90;;;;;;20544888;28;20114;-86
2021/08/04 00:52:39;;;;;;;2.85;0.90;;;13.60;99.90;;;;;;20584946;28;20036;-86
2021/08/04 01:02:49;;;;;;;1.67;0.68;;;13.50;99.90;;;;;;20557450;28;20081;-87
2021/08/04 01:13:22;;;;;;;2.67;0.90;;;13.60;99.90;;;;;;20594156;28;20056;-86
2021/08/04 01:23:57;;;;;;;2.70;0.93;;;13.50;99.90;;;;;;20573465;28;20053;-87
2021/08/04 01:33:59;;;;;;;4.60;1.15;;;13.30;99.90;;;;;;20563708;28;20047;-86
2021/08/04 01:44:01;;;;;;;2.80;1.40;;;13.30;99.90;;;;;;20549216;28;20118;-86
2021/08/04 01:54:03;;;;;;;2.13;1.15;;;13.30;99.90;;;;;;20554524;28;20050;-86
2021/08/04 02:04:05;;;;;;;2.75;1.20;;;13.30;99.90;;;;;;20593128;28;20102;-88
2021/08/04 02:14:23;;;;;;;2.92;1.05;;;13.40;99.90;;;;;;20570328;28;20137;-88
2021/08/04 02:24:24;;;;;;;2.97;1.20;;;13.30;99.90;;;;;;20569801;28;20066;-87
2021/08/04 02:34:27;;;;;;;2.40;0.90;;;13.30;99.90;;;;;;20580666;28;20038;-87
2021/08/04 02:44:28;;;;;;;1.58;0.85;;;13.20;99.90;;;;;;20502697;28;20050;-89
2021/08/04 02:54:29;;;;;;;2.33;1.00;;;13.30;99.90;;;;;;20551952;28;20066;-86
2021/08/04 03:04:31;;;;;;;3.00;1.17;;;13.30;99.90;;;;;;20588248;28;20444;-86
2021/08/04 03:14:32;;;;;;;2.30;1.00;;;13.30;99.90;;;;;;20535211;28;20046;-87
2021/08/04 03:24:34;;;;;;;3.45;1.20;;;13.30;99.90;;;;;;20555951;28;20104;-88
2021/08/04 03:34:37;;;;;;;3.20;1.00;;;13.30;99.90;;;;;;20607664;28;20042;-87
2021/08/04 03:44:38;;;;;;;2.47;1.25;;;13.10;99.90;;;;;;20558170;28;20449;-86
2021/08/04 03:54:39;;;;;;;2.00;0.80;;;13.10;99.90;;;;;;20616082;28;20077;-85
2021/08/04 04:04:40;;;;;;;3.20;1.30;;;13.00;99.90;;;;;;20583169;28;20474;-86
2021/08/04 04:14:41;;;;;;;2.67;1.63;;;12.90;99.90;;;;;;20539408;28;20049;-86
2021/08/04 04:24:42;;;;;;;4.50;1.38;;;12.80;99.90;;;;;;20555899;28;20502;-86
2021/08/04 04:34:43;;;;;;;3.42;0.85;;;12.60;99.90;;;;;;20536725;28;20560;-86
2021/08/04 04:44:45;;;;;;;3.05;1.10;;;12.70;99.90;;;;;;20605735;28;20600;-86
2021/08/04 04:54:46;;;;;;;3.78;1.48;;;12.80;99.90;;;;;;20541567;28;20057;-86
2021/08/04 05:04:47;;;;;;;3.85;1.45;;;13.00;99.90;;;;;;20552004;28;20477;-86
2021/08/04 05:14:48;;;;;;;4.00;1.58;;;13.20;99.90;;;;;;20549946;28;20088;-87
2021/08/04 05:24:49;;;;;;;3.40;1.65;;;13.50;99.90;;;;;;20550268;28;20617;-87
2021/08/04 05:34:50;;;;;;;2.58;1.10;;;13.80;99.90;;;;;;20585019;28;20045;-88
2021/08/04 05:44:51;;;;;;;3.72;1.83;;;14.10;99.90;;;;;;20549022;28;20055;-88
2021/08/04 05:54:53;;;;;;;2.72;1.55;;;14.30;99.90;;;;;;20557942;28;20034;-87
2021/08/04 06:04:54;;;;;;;3.75;1.67;;;14.60;99.90;;;;;;20543947;28;20450;-87
2021/08/04 06:14:55;;;;;;;6.00;2.10;;;14.90;99.90;;;;;;20563751;28;20042;-87
2021/08/04 06:24:56;;;;;;;3.42;1.40;;;15.10;99.90;;;;;;20567816;28;20491;-88
2021/08/04 06:34:58;;;;;;;3.35;1.13;;;15.20;99.90;;;;;;20553429;28;20043;-87
2021/08/04 06:44:59;;;;;;;3.35;1.35;;;15.50;99.90;;;;;;20556393;28;20515;-87
2021/08/04 06:55:00;;;;;;;9.45;2.05;;;15.80;99.90;;;;;;20586204;28;20521;-87
2021/08/04 07:05:02;;;;;;;2.53;1.23;;;16.00;99.90;;;;;;20572857;28;20046;-87
2021/08/04 07:15:05;;;;;;;3.33;1.30;;;16.10;99.90;;;;;;20564589;28;20517;-87
2021/08/04 07:25:07;;;;;;;4.20;2.35;;;16.20;99.90;;;;;;20600300;28;20046;-88
2021/08/04 07:35:09;;;;;;;6.07;1.40;;;16.40;99.90;;;;;;20570496;28;20050;-86
2021/08/04 07:45:11;;;;;;;3.75;1.95;;;16.30;99.90;;;;;;20598224;28;20062;-87
2021/08/04 07:55:14;;;;;;;4.18;1.48;;;16.50;99.90;;;;;;20600448;28;20129;-87
2021/08/04 08:05:15;;;;;;;4.28;2.15;;;16.90;99.90;;;;;;20568694;28;20120;-87
2021/08/04 08:15:17;;;;;;;3.60;1.58;;;17.00;99.90;;;;;;20571151;28;20122;-87
2021/08/04 08:25:18;;;;;;;3.80;1.58;;;17.20;99.90;;;;;;20600725;28;20066;-88
2021/08/04 08:35:20;;;;;;;2.15;0.82;;;17.60;99.90;;;;;;20584109;28;20054;-88
2021/08/04 08:45:22;;;;;;;3.65;1.58;;;17.90;99.90;;;;;;20595961;28;20067;-88
2021/08/04 08:55:24;;;;;;;2.25;0.88;;;18.30;99.90;;;;;;20576885;28;20050;-87
2021/08/04 09:05:25;;;;;;;0.75;0.43;;;18.70;99.90;;;;;;20566165;28;20042;-85
2021/08/04 09:15:36;;;;;;;4.15;1.00;;;19.20;99.90;;;;;;20584413;28;20056;-85
2021/08/04 09:25:37;;;;;;;2.38;0.80;;;19.60;99.90;;;;;;20586811;28;20054;-84
2021/08/04 09:35:50;;;;;;;2.70;1.20;;;19.80;99.90;;;;;;20548647;28;20050;-83
2021/08/04 09:45:54;;;;;;;2.53;1.00;;;20.20;99.90;;;;;;20581701;28;20129;-83
2021/08/04 09:56:08;;;;;;;3.70;1.60;;;20.20;99.90;;;;;;20601327;28;20042;-83
2021/08/04 10:06:20;;;;;;;5.95;1.20;;;20.70;99.90;;;;;;20543847;28;20053;-85
2021/08/04 10:16:33;;;;;;;2.92;0.90;;;21.10;99.90;;;;;;20564888;28;20039;-85
2021/08/04 10:26:38;;;;;;;2.78;1.50;;;21.20;99.90;;;;;;20607875;28;20056;-85
2021/08/04 10:36:44;;;;;;;4.70;0.95;;;21.40;99.90;;;;;;20593501;28;20046;-85
2021/08/04 10:46:45;;;;;;;2.97;0.93;;;21.90;99.90;;;;;;20570105;28;20049;-85
2021/08/04 10:56:48;;;;;;;1.48;0.90;;;22.20;99.90;;;;;;20617791;28;20047;-86
2021/08/04 11:07:07;;;;;;;2.35;0.80;;;22.30;99.90;;;;;;20615602;28;20051;-86
2021/08/04 11:17:11;;;;;;;3.45;1.25;;;23.10;99.90;;;;;;20578657;28;20050;-87
2021/08/04 11:27:12;;;;;;;2.72;1.20;;;23.20;99.90;;;;;;20585931;28;20046;-87
2021/08/04 11:37:15;;;;;;;2.90;0.95;;;22.20;99.90;;;;;;20577329;28;20061;-85
2021/08/04 11:47:16;;;;;;;1.88;0.95;;;21.70;99.90;;;;;;20571238;28;20085;-86
2021/08/04 11:57:32;;;;;;;2.00;0.98;;;20.90;99.90;;;;;;20585530;28;20046;-83
2021/08/04 12:07:35;;;;;;;1.88;0.85;;;20.50;99.90;;;;;;20602002;28;20075;-83
2021/08/04 12:17:37;;;;;;;2.47;0.90;;;20.20;99.90;;;;;;20593715;28;20129;-83
2021/08/04 12:27:47;;;;;;;1.80;0.70;;;19.90;99.90;;;;;;20607020;28;20073;-83
2021/08/04 12:37:48;;;;;;;2.67;1.10;;;19.90;99.90;;;;;;20601232;28;20054;-83
2021/08/04 12:47:58;;;;;;;2.10;1.10;;;20.00;99.90;;;;;;20592653;28;20061;-83
2021/08/04 12:58:06;;;;;;;2.70;1.50;;;20.00;99.90;;;;;;20593641;28;20038;-83
2021/08/04 13:08:07;;;;;;;4.32;1.40;;;21.30;99.90;;;;;;20600999;28;20047;-84
2021/08/04 13:18:08;;;;;;;2.72;1.45;;;22.70;99.90;;;;;;20585103;28;20129;-85
2021/08/04 13:28:48;;;;;;;2.92;1.42;;;23.00;99.90;;;;;;20553400;28;20047;-85
2021/08/04 13:38:49;;;;;;;2.67;1.10;;;23.50;99.90;;;;;;20429676;28;20109;-85
2021/08/04 13:48:50;;;;;;;1.75;0.80;;;23.20;99.90;;;;;;20613966;28;20067;-85
2021/08/04 13:58:52;;;;;;;2.95;1.63;;;22.90;99.90;;;;;;20593292;28;20039;-85
2021/08/04 14:08:53;;;;;;;1.92;1.10;;;23.30;99.90;;;;;;20588976;28;20073;-84
2021/08/04 14:18:54;;;;;;;3.53;1.48;;;23.50;99.90;;;;;;20596818;28;20125;-84
2021/08/04 14:28:55;;;;;;;5.13;1.55;;;22.20;99.90;;;;;;20573597;28;20096;-85
2021/08/04 14:38:56;;;;;;;2.22;1.08;;;21.30;99.90;;;;;;20541955;28;20047;-83
2021/08/04 14:48:58;;;;;;;2.38;0.90;;;21.10;99.90;;;;;;20544176;28;20511;-82
2021/08/04 14:59:00;;;;;;;1.77;0.80;;;20.90;99.90;;;;;;20553539;28;20130;-82
2021/08/04 15:09:04;;;;;;;1.67;0.90;;;20.90;99.90;;;;;;20578195;28;20038;-82
2021/08/04 15:19:05;;;;;;;1.67;0.80;;;21.00;99.90;;;;;;20576319;28;20042;-82
2021/08/04 15:29:07;;;;;;;1.50;0.80;;;20.90;99.90;;;;;;20602479;28;20080;-82
2021/08/04 15:39:10;;;;;;;1.63;0.90;;;20.90;99.90;;;;;;20613074;28;20050;-83
2021/08/04 15:49:11;;;;;;;1.45;0.70;;;20.90;99.90;;;;;;20590052;28;20046;-82
2021/08/04 15:59:12;;;;;;;2.15;0.85;;;20.60;99.90;;;;;;20582792;28;20046;-82
2021/08/04 16:09:14;;;;;;;3.53;1.25;;;20.60;99.90;;;;;;20566260;28;20134;-82
2021/08/04 16:19:15;;;;;;;2.22;1.02;;;20.60;99.90;;;;;;20591981;28;20066;-84
2021/08/04 16:29:16;;;;;;;2.47;1.20;;;20.60;99.90;;;;;;20546186;28;20042;-86
2021/08/04 16:39:17;;;;;;;2.20;0.98;;;20.50;99.90;;;;;;20555062;28;20059;-85
2021/08/04 16:49:18;;;;;;;1.88;0.90;;;20.40;99.90;;;;;;20558698;28;20041;-84
2021/08/04 16:59:22;;;;;;;4.65;2.08;;;20.40;99.90;;;;;;20512247;28;20051;-84
2021/08/04 17:09:23;;;;;;;2.75;1.55;;;20.30;99.90;;;;;;20601098;28;20035;-83
2021/08/04 17:19:26;;;;;;;3.47;1.77;;;19.90;99.90;;;;;;20582265;28;20125;-85
2021/08/04 17:29:27;;;;;;;5.00;1.80;;;18.80;99.90;;;;;;20545195;28;20450;-84
2021/08/04 17:39:29;;;;;;;5.68;2.20;;;17.70;99.90;;;;;;20580444;28;20047;-83
2021/08/04 17:49:30;;;;;;;6.70;3.13;;;17.30;99.90;;;;;;20551943;28;20489;-83
2021/08/04 17:59:32;;;;;;;5.93;2.60;;;17.10;99.90;;;;;;20528734;28;20474;-84
2021/08/04 18:09:33;;;;;;;5.03;3.00;;;17.00;99.90;;;;;;20556279;28;20035;-84
2021/08/04 18:19:37;;;;;;;5.55;2.80;;;17.20;99.90;;;;;;20579848;28;20109;-84
2021/08/04 18:29:40;;;;;;;5.22;3.03;;;17.40;99.90;;;;;;20556661;28;20054;-85
2021/08/04 18:39:41;;;;;;;9.82;2.85;;;17.60;99.90;;;;;;20583531;28;20501;-85
2021/08/04 18:49:42;;;;;;;7.00;3.50;;;17.50;99.90;;;;;;20609529;28;20402;-83
2021/08/04 18:59:44;;;;;;;5.90;3.30;;;17.20;99.90;;;;;;20554405;28;20509;-85
2021/08/04 19:09:45;;;;;;;5.07;2.90;;;17.20;99.90;;;;;;20555839;28;20516;-84
2021/08/04 19:19:46;;;;;;;8.10;3.22;;;17.20;99.90;;;;;;20486816;28;20050;-84
2021/08/04 19:29:47;;;;;;;5.70;3.50;;;17.10;99.90;;;;;;20556577;28;20501;-84
2021/08/04 19:39:48;;;;;;;5.43;3.03;;;17.10;99.90;;;;;;20511714;28;20502;-83
2021/08/04 19:49:49;;;;;;;7.28;4.00;;;17.10;99.90;;;;;;20536858;28;20042;-82
2021/08/04 19:59:50;;;;;;;9.35;3.53;;;17.10;99.90;;;;;;20586964;28;20648;-83
2021/08/04 20:09:51;;;;;;;5.72;2.90;;;17.00;99.90;;;;;;20599193;28;20141;-83
2021/08/04 20:19:53;;;;;;;6.10;3.88;;;16.80;99.90;;;;;;20536808;28;20050;-84
2021/08/04 20:29:54;;;;;;;4.45;2.58;;;16.50;99.90;;;;;;20574605;28;20717;-84
2021/08/04 20:39:55;;;;;;;5.43;2.67;;;16.60;99.90;;;;;;20576914;28;20134;-84
2021/08/04 20:49:56;;;;;;;4.10;2.22;;;16.70;99.90;;;;;;20599429;28;20034;-85
2021/08/04 20:59:57;;;;;;;5.82;2.53;;;16.70;99.90;;;;;;20573880;28;20622;-85
2021/08/04 21:09:58;;;;;;;5.00;2.45;;;16.60;99.90;;;;;;20548772;28;20038;-84
2021/08/04 21:20:01;;;;;;;6.32;3.15;;;16.70;99.90;;;;;;20538982;28;20050;-85
2021/08/04 21:30:04;;;;;;;5.03;2.50;;;16.70;99.90;;;;;;20580230;28;20073;-85
2021/08/04 21:40:10;;;;;;;5.47;2.80;;;16.70;99.90;;;;;;20572718;28;20047;-85
2021/08/04 21:50:12;;;;;;;4.30;2.25;;;16.70;99.90;;;;;;20580509;28;20077;-85
2021/08/04 22:00:16;;;;;;;4.85;2.63;;;16.70;99.90;;;;;;20543693;28;20902;-84
2021/08/04 22:10:19;;;;;;;4.80;2.20;;;16.70;99.90;;;;;;20576373;28;20045;-85
2021/08/04 22:20:20;;;;;;;4.68;2.45;;;16.70;99.90;;;;;;20581315;28;20042;-84
2021/08/04 22:30:21;;;;;;;3.92;2.22;;;16.60;99.90;;;;;;20582918;28;20036;-85
2021/08/04 22:40:26;;;;;;;6.28;2.38;;;16.50;99.90;;;;;;20548379;28;20053;-85
2021/08/04 22:50:27;;;;;;;4.07;1.98;;;16.40;99.90;;;;;;20579631;28;20042;-85
2021/08/04 23:00:29;;;;;;;4.15;2.35;;;16.30;99.90;;;;;;20573752;28;20054;-85
2021/08/04 23:10:30;;;;;;;4.22;2.25;;;16.30;99.90;;;;;;20479934;28;20053;-85
2021/08/04 23:20:31;;;;;;;4.22;2.05;;;16.20;99.90;;;;;;20546793;28;20042;-85
2021/08/04 23:30:32;;;;;;;6.72;2.35;;;16.20;99.90;;;;;;20562607;28;20057;-85
2021/08/04 23:40:34;;;;;;;5.70;2.35;;;16.00;99.90;;;;;;20583171;28;20105;-85
2021/08/04 23:50:37;;;;;;;3.55;1.90;;;15.90;99.90;;;;;;20589890;28;20031;-84
